Terminal Aerodrome Forecast
Issued by NWS

Home | Current Version | Previous Version | Text Only | Print | Product List | Glossary On
Versions: 1 2 3 4 5 6 7 8 9 10 11 12 13
000
FTUS44 KLIX 312333
TAFHDC
TAF
KHDC 312333Z 0100/0124 19004KT P6SM FEW050 SCT200
     FM010900 00000KT P6SM SCT250
      TEMPO 0110/0113 4SM BR
     FM011700 16006KT P6SM SCT035=

USA.gov is the U.S. government's official web portal to all federal, state and local government web resources and services.